createdAt,value
2022-09-14T00:00:07.709Z,19.40
2022-09-14T00:02:48.334Z,18.77
2022-09-14T00:05:16.797Z,19.60
2022-09-14T00:07:46.037Z,19.70
2022-09-14T00:10:17.467Z,19.20
2022-09-14T00:12:48.220Z,18.90
2022-09-14T00:15:20.649Z,20.13
2022-09-14T00:17:58.139Z,18.97
2022-09-14T00:20:42.411Z,19.03
2022-09-14T00:23:17.594Z,19.60
2022-09-14T00:26:04.533Z,19.20
2022-09-14T00:28:41.183Z,20.00
2022-09-14T00:31:10.841Z,19.03
2022-09-14T00:33:42.367Z,19.00
2022-09-14T00:36:16.982Z,18.60
2022-09-14T00:38:47.447Z,18.90
2022-09-14T00:41:18.378Z,19.50
2022-09-14T00:44:00.225Z,19.27
2022-09-14T00:46:32.299Z,19.60
2022-09-14T00:49:12.990Z,20.67
2022-09-14T00:51:55.964Z,19.37
2022-09-14T00:54:25.537Z,19.37
2022-09-14T00:57:00.409Z,19.40
2022-09-14T00:59:38.453Z,19.70
2022-09-14T01:02:09.211Z,19.50
2022-09-14T01:04:43.865Z,19.53
2022-09-14T01:07:24.154Z,19.27
2022-09-14T01:10:00.204Z,19.60
2022-09-14T01:12:40.638Z,19.63
2022-09-14T01:15:32.628Z,19.63
2022-09-14T01:18:08.439Z,19.70
2022-09-14T01:20:52.520Z,20.27
2022-09-14T01:23:48.222Z,20.23
2022-09-14T01:27:01.601Z,19.80
2022-09-14T01:29:36.364Z,19.27
2022-09-14T01:32:11.317Z,19.80
2022-09-14T01:34:43.833Z,19.57
2022-09-14T01:37:18.483Z,20.30
2022-09-14T01:40:07.520Z,19.77
2022-09-14T01:42:50.297Z,20.00
2022-09-14T01:45:25.490Z,20.00
2022-09-14T01:48:04.933Z,20.00
2022-09-14T01:50:40.010Z,19.63
2022-09-14T01:53:13.454Z,19.60
2022-09-14T01:55:47.179Z,20.30
2022-09-14T01:58:25.952Z,19.73
2022-09-14T02:01:11.863Z,19.90
2022-09-14T02:03:46.661Z,20.90
2022-09-14T02:06:27.914Z,20.43
2022-09-14T02:08:57.423Z,20.60
2022-09-14T02:11:37.071Z,20.33
2022-09-14T02:14:05.772Z,20.20
2022-09-14T02:16:46.972Z,20.87
2022-09-14T02:19:27.201Z,19.90
2022-09-14T02:22:01.506Z,20.23
2022-09-14T02:24:33.209Z,20.27
2022-09-14T02:27:10.619Z,19.90
2022-09-14T02:29:40.235Z,20.03
2022-09-14T02:32:22.345Z,20.70
2022-09-14T02:35:06.932Z,20.40
2022-09-14T02:37:54.373Z,20.60
2022-09-14T02:40:36.174Z,21.40
2022-09-14T02:43:29.156Z,20.87
2022-09-14T02:46:08.033Z,20.17
2022-09-14T02:48:46.708Z,20.77
2022-09-14T02:51:38.606Z,20.27
2022-09-14T02:54:15.852Z,20.43
2022-09-14T02:56:46.880Z,20.50
2022-09-14T02:59:23.043Z,20.43
2022-09-14T03:02:12.827Z,20.50
2022-09-14T03:04:54.007Z,20.43
2022-09-14T03:07:34.345Z,20.60
2022-09-14T03:10:05.119Z,20.70
2022-09-14T03:12:33.450Z,20.87
2022-09-14T03:15:06.492Z,20.40
2022-09-14T03:17:36.804Z,21.47
2022-09-14T03:20:11.593Z,20.70
2022-09-14T03:22:52.348Z,21.30
2022-09-14T03:25:28.047Z,21.03
2022-09-14T03:28:19.000Z,20.43
2022-09-14T03:30:56.489Z,20.37
2022-09-14T03:33:35.373Z,20.17
2022-09-14T03:36:23.865Z,19.90
2022-09-14T03:39:06.372Z,19.83
2022-09-14T03:41:36.552Z,20.30
2022-09-14T03:44:16.942Z,20.10
2022-09-14T03:46:54.421Z,20.03
2022-09-14T03:49:29.689Z,19.90
2022-09-14T03:52:11.360Z,20.70
2022-09-14T03:54:40.705Z,20.57
2022-09-14T03:57:14.833Z,21.87
2022-09-14T03:59:44.233Z,21.73
2022-09-14T04:02:16.535Z,22.10
2022-09-14T04:05:21.565Z,22.67
2022-09-14T04:07:52.540Z,22.23
2022-09-14T04:10:21.843Z,22.60
2022-09-14T04:12:51.236Z,22.80
2022-09-14T04:15:19.930Z,23.73
2022-09-14T04:17:50.230Z,23.00
2022-09-14T04:20:18.678Z,23.00
2022-09-14T04:22:50.040Z,22.50
2022-09-14T04:25:20.127Z,22.40
2022-09-14T04:28:16.854Z,24.27
2022-09-14T04:30:55.173Z,24.53
2022-09-14T04:33:27.300Z,23.43
2022-09-14T04:36:04.669Z,24.67
2022-09-14T04:38:45.503Z,24.73
2022-09-14T04:41:20.570Z,24.77
2022-09-14T04:43:55.548Z,25.20
2022-09-14T04:46:26.888Z,24.70
2022-09-14T04:48:55.364Z,27.43
2022-09-14T04:51:26.917Z,25.47
2022-09-14T04:54:00.401Z,28.10
2022-09-14T04:56:48.783Z,29.20
2022-09-14T04:59:18.077Z,30.60
2022-09-14T05:01:49.821Z,32.03
2022-09-14T05:04:24.387Z,32.00
2022-09-14T05:07:04.354Z,33.67
2022-09-14T05:09:40.841Z,33.30
2022-09-14T05:12:16.575Z,32.43
2022-09-14T05:14:54.766Z,31.37
2022-09-14T05:17:23.174Z,33.97
2022-09-14T05:19:54.712Z,31.50
2022-09-14T05:22:24.566Z,31.67
2022-09-14T05:25:00.789Z,32.53
2022-09-14T05:27:33.961Z,34.33
2022-09-14T05:30:03.269Z,35.97
2022-09-14T05:32:38.043Z,35.77
2022-09-14T05:35:09.014Z,36.60
2022-09-14T05:37:37.360Z,37.80
2022-09-14T05:40:58.917Z,40.50
2022-09-14T05:43:31.489Z,40.20
2022-09-14T05:46:06.046Z,38.30
2022-09-14T05:48:37.917Z,39.40
2022-09-14T05:51:08.966Z,39.67
2022-09-14T05:53:39.428Z,41.20
2022-09-14T05:56:28.291Z,40.37
2022-09-14T05:59:04.683Z,37.23
2022-09-14T06:01:41.833Z,38.17
2022-09-14T06:04:18.835Z,36.53
2022-09-14T06:07:01.680Z,36.53
2022-09-14T06:09:53.519Z,38.23
2022-09-14T06:12:29.469Z,39.33
2022-09-14T06:15:05.415Z,36.97
2022-09-14T06:17:34.584Z,35.23
2022-09-14T06:20:09.588Z,31.17
2022-09-14T06:22:37.571Z,29.63
2022-09-14T06:25:06.120Z,29.47
2022-09-14T06:27:34.119Z,29.90
2022-09-14T06:30:02.217Z,29.43
2022-09-14T06:32:33.747Z,31.20
2022-09-14T06:35:03.110Z,29.93
2022-09-14T06:37:32.147Z,29.10
2022-09-14T06:40:01.234Z,29.17
2022-09-14T06:42:30.789Z,29.03
2022-09-14T06:44:58.754Z,28.20
2022-09-14T06:47:34.385Z,25.77
2022-09-14T06:50:06.553Z,27.40
2022-09-14T06:52:36.790Z,27.23
2022-09-14T06:55:05.587Z,25.60
2022-09-14T06:57:33.537Z,24.27
2022-09-14T07:00:04.164Z,22.87
2022-09-14T07:02:32.239Z,22.77
2022-09-14T07:05:03.918Z,23.23
2022-09-14T07:07:31.945Z,24.00
2022-09-14T07:09:59.870Z,23.70
2022-09-14T07:12:29.419Z,22.40
2022-09-14T07:15:09.171Z,22.27
2022-09-14T07:17:50.248Z,22.80
2022-09-14T07:20:30.973Z,25.33
2022-09-14T07:23:13.636Z,22.10
2022-09-14T07:25:42.513Z,22.23
2022-09-14T07:28:16.695Z,22.90
2022-09-14T07:30:58.345Z,22.23
2022-09-14T07:33:27.275Z,24.20
2022-09-14T07:36:05.292Z,23.27
2022-09-14T07:38:51.769Z,23.67
2022-09-14T07:41:23.006Z,24.27
2022-09-14T07:43:52.340Z,26.17
2022-09-14T07:46:21.197Z,24.30
2022-09-14T07:49:02.403Z,23.30
2022-09-14T07:51:34.846Z,23.07
2022-09-14T07:54:13.046Z,23.30
2022-09-14T07:56:45.631Z,22.40
2022-09-14T07:59:38.541Z,21.73
2022-09-14T08:02:13.237Z,21.33
2022-09-14T08:04:44.142Z,21.57
2022-09-14T08:07:31.250Z,20.57
2022-09-14T08:10:15.792Z,20.10
2022-09-14T08:12:44.932Z,20.53
2022-09-14T08:15:13.436Z,20.90
2022-09-14T08:17:41.969Z,20.77
2022-09-14T08:20:18.591Z,21.10
2022-09-14T08:22:48.311Z,20.77
2022-09-14T08:25:18.736Z,20.37
2022-09-14T08:28:11.862Z,20.33
2022-09-14T08:30:48.205Z,21.93
2022-09-14T08:33:18.702Z,22.80
2022-09-14T08:35:57.695Z,23.30
2022-09-14T08:38:36.632Z,21.97
2022-09-14T08:41:19.576Z,21.10
2022-09-14T08:44:15.842Z,20.50
2022-09-14T08:46:56.292Z,20.00
2022-09-14T08:49:52.032Z,21.27
2022-09-14T08:52:29.328Z,20.20
2022-09-14T08:55:20.786Z,21.10
2022-09-14T08:58:12.967Z,21.90
2022-09-14T09:00:59.339Z,20.77
2022-09-14T09:04:06.569Z,20.43
2022-09-14T09:06:50.028Z,20.53
2022-09-14T09:09:28.984Z,20.60
2022-09-14T09:12:01.011Z,19.90
2022-09-14T09:14:35.489Z,20.30
2022-09-14T09:17:11.545Z,19.53
2022-09-14T09:19:47.545Z,19.70
2022-09-14T09:22:26.072Z,20.10
2022-09-14T09:25:04.480Z,19.97
2022-09-14T09:27:39.129Z,19.97
2022-09-14T09:30:14.447Z,20.07
2022-09-14T09:32:44.055Z,19.70
2022-09-14T09:35:24.762Z,19.50
2022-09-14T09:38:01.054Z,19.00
2022-09-14T09:40:39.860Z,19.07
2022-09-14T09:43:21.293Z,19.00
2022-09-14T09:46:03.317Z,19.23
2022-09-14T09:48:34.884Z,18.43
2022-09-14T09:51:13.783Z,18.23
2022-09-14T09:54:07.192Z,17.97
2022-09-14T09:56:52.104Z,18.10
2022-09-14T09:59:35.402Z,18.37
2022-09-14T10:02:23.903Z,17.60
2022-09-14T10:05:08.527Z,17.57
2022-09-14T10:07:40.991Z,17.73
2022-09-14T10:10:22.842Z,17.50
2022-09-14T10:12:53.783Z,18.93
2022-09-14T10:15:26.982Z,17.63
2022-09-14T10:18:10.117Z,17.90
2022-09-14T10:21:08.809Z,18.87
2022-09-14T10:23:38.489Z,17.57
2022-09-14T10:26:28.496Z,18.07
2022-09-14T10:29:30.510Z,18.90
2022-09-14T10:32:24.274Z,18.80
2022-09-14T10:34:53.601Z,18.03
2022-09-14T10:37:37.575Z,18.10
2022-09-14T10:40:18.754Z,18.20
2022-09-14T10:43:13.357Z,18.33
2022-09-14T10:45:50.490Z,18.10
2022-09-14T10:48:45.355Z,17.80
2022-09-14T10:51:40.141Z,17.90
2022-09-14T10:54:45.789Z,17.77
2022-09-14T10:57:25.328Z,17.57
2022-09-14T11:00:14.695Z,17.70
2022-09-14T11:03:02.414Z,17.57
2022-09-14T11:05:41.555Z,17.30
2022-09-14T11:08:18.684Z,17.70
2022-09-14T11:11:09.354Z,17.90
2022-09-14T11:13:55.224Z,17.47
2022-09-14T11:16:55.934Z,17.93
2022-09-14T11:19:45.563Z,17.87
2022-09-14T11:22:23.756Z,17.60
2022-09-14T11:25:00.614Z,17.60
2022-09-14T11:27:44.082Z,18.00
2022-09-14T11:30:21.046Z,17.93
2022-09-14T11:32:56.382Z,17.80
2022-09-14T11:35:43.507Z,17.70
2022-09-14T11:38:18.377Z,17.80
2022-09-14T11:40:53.882Z,17.80
2022-09-14T11:43:35.407Z,17.57
2022-09-14T11:46:09.476Z,17.67
2022-09-14T11:48:43.385Z,17.97
2022-09-14T11:51:16.298Z,17.47
2022-09-14T11:53:47.312Z,17.27
2022-09-14T11:56:26.568Z,17.67
2022-09-14T11:58:56.566Z,18.80
2022-09-14T12:01:35.719Z,18.70
2022-09-14T12:04:10.797Z,18.23
2022-09-14T12:06:57.348Z,17.83
2022-09-14T12:10:16.714Z,17.90
2022-09-14T12:12:46.199Z,17.80
2022-09-14T12:15:19.105Z,18.17
2022-09-14T12:17:47.114Z,18.40
2022-09-14T12:20:31.002Z,18.90
2022-09-14T12:23:16.497Z,18.57
2022-09-14T12:26:14.923Z,18.13
2022-09-14T12:28:49.029Z,19.07
2022-09-14T12:31:55.438Z,18.40
2022-09-14T12:34:24.793Z,18.63
2022-09-14T12:37:28.130Z,18.60
2022-09-14T12:40:35.335Z,18.30
2022-09-14T12:43:41.923Z,18.27
2022-09-14T12:46:31.508Z,17.90
2022-09-14T12:49:03.362Z,18.17
2022-09-14T12:51:40.166Z,18.90
2022-09-14T12:54:30.411Z,18.20
2022-09-14T12:57:25.435Z,17.83
2022-09-14T12:59:58.562Z,18.07
2022-09-14T13:02:47.836Z,18.10
2022-09-14T13:05:18.578Z,18.00
2022-09-14T13:07:47.032Z,18.30
2022-09-14T13:10:20.971Z,18.17
2022-09-14T13:12:50.345Z,18.93
2022-09-14T13:15:21.975Z,18.90
2022-09-14T13:18:06.123Z,19.30
2022-09-14T13:20:36.288Z,18.90
2022-09-14T13:23:04.667Z,19.20
2022-09-14T13:25:35.321Z,18.67
2022-09-14T13:28:05.517Z,18.83
2022-09-14T13:30:35.473Z,19.20
2022-09-14T13:33:05.280Z,18.90
2022-09-14T13:35:37.093Z,19.00
2022-09-14T13:38:10.782Z,18.37
2022-09-14T13:40:39.021Z,18.80
2022-09-14T13:43:07.219Z,18.70
2022-09-14T13:45:37.028Z,19.07
2022-09-14T13:48:07.617Z,18.23
2022-09-14T13:50:35.772Z,18.70
2022-09-14T13:53:05.039Z,18.47
2022-09-14T13:55:44.953Z,18.47
2022-09-14T13:58:22.482Z,18.00
2022-09-14T14:00:55.372Z,17.87
2022-09-14T14:03:48.851Z,17.90
2022-09-14T14:06:25.119Z,18.57
2022-09-14T14:09:02.280Z,17.90
2022-09-14T14:11:35.234Z,17.57
2022-09-14T14:14:14.930Z,18.03
2022-09-14T14:16:43.595Z,18.20
2022-09-14T14:19:29.307Z,18.03
2022-09-14T14:22:19.256Z,18.30
2022-09-14T14:27:38.854Z,18.50
2022-09-14T14:30:15.364Z,18.70
2022-09-14T14:32:43.524Z,18.23
2022-09-14T14:35:20.004Z,18.33
2022-09-14T14:37:48.872Z,18.40
2022-09-14T14:40:18.497Z,18.00
2022-09-14T14:42:47.671Z,18.00
2022-09-14T14:45:19.122Z,17.73
2022-09-14T14:47:47.790Z,17.37
2022-09-14T14:50:25.739Z,17.87
2022-09-14T14:52:54.488Z,18.47
2022-09-14T14:55:24.681Z,17.50
2022-09-14T14:57:53.982Z,18.60
2022-09-14T15:00:24.012Z,17.87
2022-09-14T15:02:52.645Z,18.30
2022-09-14T15:05:22.177Z,17.67
2022-09-14T15:07:52.480Z,17.97
2022-09-14T15:10:22.073Z,17.57
2022-09-14T15:12:50.055Z,17.60
2022-09-14T15:15:19.919Z,17.70
2022-09-14T15:17:48.086Z,17.90
2022-09-14T15:20:16.609Z,17.67
2022-09-14T15:22:45.961Z,17.77
2022-09-14T15:25:14.662Z,17.60
2022-09-14T15:27:42.893Z,17.80
2022-09-14T15:30:12.620Z,17.80
2022-09-14T15:32:41.187Z,17.67
2022-09-14T15:35:12.423Z,18.50
2022-09-14T15:37:40.586Z,18.10
2022-09-14T15:40:11.910Z,17.70
2022-09-14T15:42:39.982Z,18.03
2022-09-14T15:45:09.330Z,17.60
2022-09-14T15:47:38.306Z,17.50
2022-09-14T15:50:07.776Z,16.87
2022-09-14T15:52:36.983Z,17.50
2022-09-14T15:55:06.206Z,17.60
2022-09-14T15:57:35.893Z,17.20
2022-09-14T16:00:06.813Z,17.37
2022-09-14T16:02:34.926Z,17.80
2022-09-14T16:05:03.094Z,17.30
2022-09-14T16:07:31.056Z,18.00
2022-09-14T16:09:59.280Z,17.53
2022-09-14T16:12:27.520Z,17.60
2022-09-14T16:14:56.822Z,17.33
2022-09-14T16:17:24.739Z,17.67
2022-09-14T16:19:53.034Z,17.63
2022-09-14T16:22:21.716Z,17.40
2022-09-14T16:24:49.897Z,17.20
2022-09-14T16:27:18.040Z,17.50
2022-09-14T16:29:45.955Z,17.40
2022-09-14T16:32:15.394Z,17.50
2022-09-14T16:34:43.344Z,17.50
2022-09-14T16:37:11.290Z,17.20
2022-09-14T16:39:39.283Z,16.77
2022-09-14T16:42:07.797Z,17.20
2022-09-14T16:44:35.957Z,18.10
2022-09-14T16:47:03.898Z,17.10
2022-09-14T16:49:33.476Z,17.30
2022-09-14T16:52:01.567Z,17.70
2022-09-14T16:54:31.682Z,17.13
2022-09-14T16:57:01.273Z,17.10
2022-09-14T16:59:29.389Z,17.13
2022-09-14T17:01:57.593Z,17.00
2022-09-14T17:04:26.209Z,17.10
2022-09-14T17:06:56.545Z,17.13
2022-09-14T17:09:26.334Z,18.30
2022-09-14T17:11:55.196Z,18.40
2022-09-14T17:14:25.614Z,17.97
2022-09-14T17:16:54.080Z,17.60
2022-09-14T17:19:22.378Z,17.50
2022-09-14T17:21:50.755Z,17.40
2022-09-14T17:24:21.530Z,18.30
2022-09-14T17:26:49.441Z,17.63
2022-09-14T17:29:17.686Z,18.40
2022-09-14T17:31:46.608Z,18.40
2022-09-14T17:34:16.995Z,17.93
2022-09-14T17:36:45.573Z,17.77
2022-09-14T17:39:15.458Z,18.90
2022-09-14T17:41:45.332Z,18.30
2022-09-14T17:44:16.019Z,17.27
2022-09-14T17:46:52.574Z,17.50
2022-09-14T17:49:22.979Z,17.43
2022-09-14T17:51:51.035Z,17.30
2022-09-14T17:54:22.534Z,17.30
2022-09-14T17:56:52.504Z,17.63
2022-09-14T17:59:21.519Z,17.90
2022-09-14T18:01:50.991Z,17.17
2022-09-14T18:04:19.411Z,17.87
2022-09-14T18:06:49.305Z,17.40
2022-09-14T18:09:19.727Z,17.47
2022-09-14T18:11:49.074Z,17.50
2022-09-14T18:14:18.657Z,18.00
2022-09-14T18:16:47.086Z,18.40
2022-09-14T18:19:15.936Z,18.37
2022-09-14T18:22:09.167Z,20.40
2022-09-14T18:24:45.524Z,20.67
2022-09-14T18:27:22.931Z,19.80
2022-09-14T18:30:03.376Z,20.33
2022-09-14T18:32:38.040Z,20.07
2022-09-14T18:35:37.311Z,19.27
2022-09-14T18:38:19.446Z,19.20
2022-09-14T18:41:23.044Z,21.27
2022-09-14T18:43:54.216Z,20.43
2022-09-14T18:46:28.365Z,19.17
2022-09-14T18:48:59.673Z,22.27
2022-09-14T18:51:29.198Z,20.90
2022-09-14T18:54:09.414Z,20.83
2022-09-14T18:57:01.429Z,21.13
2022-09-14T18:59:34.247Z,21.40
2022-09-14T19:02:36.012Z,20.83
2022-09-14T19:05:05.790Z,22.00
2022-09-14T19:07:36.034Z,22.87
2022-09-14T19:10:17.048Z,23.30
2022-09-14T19:12:45.773Z,23.07
2022-09-14T19:15:18.132Z,22.67
2022-09-14T19:17:53.711Z,24.77
2022-09-14T19:20:24.187Z,24.30
2022-09-14T19:22:53.016Z,23.70
2022-09-14T19:25:57.170Z,22.93
2022-09-14T19:28:27.527Z,23.63
2022-09-14T19:31:07.620Z,24.30
2022-09-14T19:33:46.318Z,24.37
2022-09-14T19:36:17.447Z,24.90
2022-09-14T19:38:49.636Z,24.87
2022-09-14T19:41:25.242Z,25.30
2022-09-14T19:44:23.786Z,25.90
2022-09-14T19:46:54.078Z,25.23
2022-09-14T19:49:37.949Z,25.67
2022-09-14T19:52:06.308Z,26.30
2022-09-14T19:54:48.234Z,25.47
2022-09-14T19:57:24.408Z,26.43
2022-09-14T20:00:01.714Z,26.00
2022-09-14T20:02:35.337Z,26.77
2022-09-14T20:05:22.306Z,29.00
2022-09-14T20:08:03.195Z,27.30
2022-09-14T20:10:35.762Z,25.60
2022-09-14T20:13:09.256Z,25.20
2022-09-14T20:15:43.506Z,25.00
2022-09-14T20:18:13.672Z,24.70
2022-09-14T20:21:22.164Z,25.00
2022-09-14T20:24:15.728Z,26.27
2022-09-14T20:27:40.885Z,25.57
2022-09-14T20:30:10.569Z,26.20
2022-09-14T20:32:40.785Z,25.80
2022-09-14T20:35:26.604Z,26.33
2022-09-14T20:38:05.775Z,28.00
2022-09-14T20:40:44.127Z,26.83
2022-09-14T20:43:14.619Z,26.60
2022-09-14T20:46:55.575Z,28.53
2022-09-14T20:49:27.289Z,27.87
2022-09-14T20:52:04.058Z,28.30
2022-09-14T20:54:40.187Z,30.03
2022-09-14T20:57:14.256Z,31.10
2022-09-14T20:59:59.531Z,32.83
2022-09-14T21:02:30.799Z,33.40
2022-09-14T21:05:15.260Z,33.80
2022-09-14T21:07:55.557Z,35.50
2022-09-14T21:10:39.737Z,35.27
2022-09-14T21:13:10.665Z,37.90
2022-09-14T21:15:40.425Z,39.10
2022-09-14T21:18:19.954Z,41.20
2022-09-14T21:20:48.905Z,42.83
2022-09-14T21:23:27.342Z,43.93
2022-09-14T21:25:59.344Z,49.37
2022-09-14T21:28:29.583Z,48.80
2022-09-14T21:31:09.611Z,49.47
2022-09-14T21:33:49.499Z,51.00
2022-09-14T21:36:22.852Z,53.57
2022-09-14T21:38:52.052Z,54.00
2022-09-14T21:41:28.248Z,54.00
2022-09-14T21:44:02.555Z,52.67
2022-09-14T21:46:44.783Z,54.03
2022-09-14T21:49:22.597Z,52.80
2022-09-14T21:52:04.736Z,54.70
2022-09-14T21:54:43.713Z,54.50
2022-09-14T21:57:13.047Z,58.47
2022-09-14T21:59:48.802Z,61.80
2022-09-14T22:02:21.740Z,61.10
2022-09-14T22:04:50.219Z,60.70
2022-09-14T22:07:19.556Z,61.00
2022-09-14T22:09:53.968Z,61.37
2022-09-14T22:12:28.108Z,62.90
2022-09-14T22:14:58.954Z,62.83
2022-09-14T22:17:34.115Z,62.87
2022-09-14T22:20:33.434Z,61.10
2022-09-14T22:23:02.892Z,62.00
2022-09-14T22:25:41.694Z,65.20
2022-09-14T22:28:23.382Z,64.77
2022-09-14T22:30:55.256Z,67.10
2022-09-14T22:33:40.687Z,68.57
2022-09-14T22:36:37.675Z,70.73
2022-09-14T22:39:14.441Z,73.57
2022-09-14T22:41:42.732Z,77.00
2022-09-14T22:44:22.174Z,79.77
2022-09-14T22:46:55.895Z,79.20
2022-09-14T22:49:24.426Z,87.20
2022-09-14T22:52:01.794Z,87.53
2022-09-14T22:54:36.353Z,93.17
2022-09-14T22:57:04.911Z,94.83
2022-09-14T22:59:35.123Z,97.47
2022-09-14T23:02:36.029Z,94.00
2022-09-14T23:05:17.345Z,93.40
2022-09-14T23:07:56.808Z,91.87
2022-09-14T23:10:57.630Z,93.10
2022-09-14T23:13:40.250Z,90.53
2022-09-14T23:16:39.008Z,92.80
2022-09-14T23:19:20.194Z,89.60
2022-09-14T23:21:49.848Z,87.80
2022-09-14T23:24:20.164Z,86.17
2022-09-14T23:26:58.466Z,79.67
2022-09-14T23:29:36.631Z,76.23
2022-09-14T23:32:24.448Z,70.90
2022-09-14T23:34:58.456Z,65.53
2022-09-14T23:37:48.183Z,60.80
2022-09-14T23:40:21.625Z,62.20
2022-09-14T23:42:51.524Z,63.67
2022-09-14T23:45:28.781Z,61.73
2022-09-14T23:48:13.910Z,59.07
2022-09-14T23:50:44.838Z,55.70
2022-09-14T23:53:42.918Z,54.20
2022-09-14T23:56:13.704Z,55.50
2022-09-14T23:58:44.651Z,54.20
